Time;durP1;ratioP1;P1;durP2;ratioP2;P2;SDS_P1;SDS_P2;PMS_P1;PMS_P2;Temp;Humidity;BMP_temperature;BMP_pressure;BME280_temperature;BME280_humidity;BME280_pressure;Samples;Min_cycle;Max_cycle;Signal;HPM_P1;HPM_P2
2022/12/17 13:06:00;;;;;;;3.4;3.3;;;;;;;-0.2;100.0;102400;;;;
2022/12/17 13:07:00;;;;;;;3.4;3.3;;;;;;;-0.2;100.0;102400;;;;
2022/12/17 13:08:07;;;;;;;3.4;3.3;;;;;;;-0.2;100.0;102400;;;;
2022/12/17 13:09:10;;;;;;;3.4;3.3;;;;;;;-0.2;100.0;102400;;;;
2022/12/17 13:10:01;;;;;;;3.4;3.3;;;;;;;-0.3;100.0;102400;;;;
2022/12/17 13:11:10;;;;;;;3.4;3.3;;;;;;;-0.3;100.0;102400;;;;
2022/12/17 13:12:01;;;;;;;3.4;3.3;;;;;;;-0.3;100.0;102400;;;;
2022/12/17 13:13:10;;;;;;;3.4;3.3;;;;;;;-0.3;100.0;102400;;;;
2022/12/17 13:14:05;;;;;;;3.4;3.3;;;;;;;-0.5;100.0;102400;;;;
2022/12/17 13:15:09;;;;;;;3.4;3.3;;;;;;;-0.5;100.0;102400;;;;
2022/12/17 13:16:04;;;;;;;3.4;3.3;;;;;;;-0.6;100.0;102400;;;;
2022/12/17 13:17:05;;;;;;;3.4;3.3;;;;;;;-0.6;100.0;102400;;;;
2022/12/17 13:18:10;;;;;;;3.4;3.3;;;;;;;-0.5;100.0;102400;;;;
2022/12/17 13:19:01;;;;;;;3.9;3.8;;;;;;;-0.5;100.0;102400;;;;
2022/12/17 13:20:00;;;;;;;3.9;3.8;;;;;;;-0.7;100.0;102400;;;;
2022/12/17 13:21:00;;;;;;;3.9;3.8;;;;;;;-0.7;100.0;102400;;;;
2022/12/17 13:22:10;;;;;;;3.9;3.8;;;;;;;-0.7;100.0;102400;;;;
2022/12/17 13:23:10;;;;;;;3.9;3.8;;;;;;;-0.7;100.0;102400;;;;
2022/12/17 13:24:09;;;;;;;3.9;3.8;;;;;;;-0.6;100.0;102410;;;;
2022/12/17 13:25:10;;;;;;;3.9;3.8;;;;;;;-0.6;100.0;102410;;;;
2022/12/17 13:26:10;;;;;;;3.9;3.8;;;;;;;-0.7;100.0;102400;;;;
2022/12/17 13:27:00;;;;;;;3.9;3.8;;;;;;;-0.7;100.0;102400;;;;
2022/12/17 13:28:00;;;;;;;3.9;3.8;;;;;;;-0.6;100.0;102400;;;;
2022/12/17 13:29:02;;;;;;;3.9;3.8;;;;;;;-0.6;100.0;102400;;;;
2022/12/17 13:30:10;;;;;;;3.9;3.8;;;;;;;-0.5;100.0;102400;;;;
2022/12/17 13:31:01;;;;;;;3.9;3.8;;;;;;;-0.5;100.0;102400;;;;
2022/12/17 13:32:01;;;;;;;3.9;3.8;;;;;;;-0.5;100.0;102400;;;;
2022/12/17 13:33:10;;;;;;;3.9;3.8;;;;;;;-0.5;100.0;102400;;;;
2022/12/17 13:34:07;;;;;;;3.9;3.8;;;;;;;-0.3;100.0;102400;;;;
2022/12/17 13:35:10;;;;;;;3.9;3.8;;;;;;;-0.3;100.0;102400;;;;
2022/12/17 13:36:10;;;;;;;3.9;3.8;;;;;;;-0.4;100.0;102400;;;;
2022/12/17 13:37:08;;;;;;;3.9;3.8;;;;;;;-0.4;100.0;102400;;;;
2022/12/17 13:38:01;;;;;;;3.9;3.8;;;;;;;-0.3;100.0;102400;;;;
2022/12/17 13:39:01;;;;;;;3.5;3.4;;;;;;;-0.3;100.0;102400;;;;
2022/12/17 13:40:10;;;;;;;3.5;3.4;;;;;;;-0.3;100.0;102390;;;;
2022/12/17 13:41:10;;;;;;;3.5;3.4;;;;;;;-0.3;100.0;102390;;;;
2022/12/17 13:42:00;;;;;;;3.5;3.4;;;;;;;-0.4;100.0;102390;;;;
2022/12/17 13:43:01;;;;;;;3.5;3.4;;;;;;;-0.4;100.0;102390;;;;
2022/12/17 13:44:03;;;;;;;3.5;3.4;;;;;;;-0.5;100.0;102390;;;;
2022/12/17 13:45:01;;;;;;;3.5;3.4;;;;;;;-0.5;100.0;102390;;;;
2022/12/17 13:46:00;;;;;;;3.5;3.4;;;;;;;-0.4;100.0;102390;;;;
2022/12/17 13:47:00;;;;;;;3.5;3.4;;;;;;;-0.4;100.0;102390;;;;
2022/12/17 13:48:00;;;;;;;3.5;3.4;;;;;;;-0.3;100.0;102390;;;;
2022/12/17 13:49:02;;;;;;;3.5;3.4;;;;;;;-0.3;100.0;102390;;;;
2022/12/17 13:50:12;;;;;;;3.5;3.4;;;;;;;-0.4;100.0;102390;;;;
2022/12/17 13:51:01;;;;;;;3.5;3.4;;;;;;;-0.4;100.0;102390;;;;
2022/12/17 13:52:12;;;;;;;3.5;3.4;;;;;;;-0.4;100.0;102400;;;;
2022/12/17 13:53:09;;;;;;;3.5;3.4;;;;;;;-0.4;100.0;102400;;;;
2022/12/17 13:54:01;;;;;;;3.5;3.4;;;;;;;-0.4;100.0;102390;;;;
2022/12/17 13:55:09;;;;;;;3.5;3.4;;;;;;;-0.4;100.0;102390;;;;
2022/12/17 13:56:00;;;;;;;3.5;3.4;;;;;;;-0.4;100.0;102390;;;;
2022/12/17 13:57:09;;;;;;;3.5;3.4;;;;;;;-0.4;100.0;102390;;;;
2022/12/17 13:58:00;;;;;;;3.5;3.4;;;;;;;-0.6;100.0;102390;;;;
2022/12/17 13:59:09;;;;;;;4.3;4.2;;;;;;;-0.6;100.0;102390;;;;
2022/12/17 14:00:01;;;;;;;4.3;4.2;;;;;;;-0.7;100.0;102390;;;;
2022/12/17 14:01:04;;;;;;;4.3;4.2;;;;;;;-0.7;100.0;102390;;;;
2022/12/17 14:02:04;;;;;;;4.3;4.2;;;;;;;-0.7;100.0;102390;;;;
2022/12/17 14:03:10;;;;;;;4.3;4.2;;;;;;;-0.7;100.0;102390;;;;
2022/12/17 14:04:08;;;;;;;4.3;4.2;;;;;;;-0.6;100.0;102390;;;;
2022/12/17 14:05:08;;;;;;;4.3;4.2;;;;;;;-0.6;100.0;102390;;;;
2022/12/17 14:06:00;;;;;;;4.3;4.2;;;;;;;-0.6;100.0;102400;;;;
2022/12/17 14:07:03;;;;;;;4.3;4.2;;;;;;;-0.6;100.0;102400;;;;
2022/12/17 14:08:02;;;;;;;4.3;4.2;;;;;;;-0.5;100.0;102390;;;;
2022/12/17 14:09:01;;;;;;;4.3;4.2;;;;;;;-0.5;100.0;102390;;;;
2022/12/17 14:10:01;;;;;;;4.3;4.2;;;;;;;-0.6;100.0;102400;;;;
2022/12/17 14:13:04;;;;;;;4.3;4.2;;;;;;;-0.6;100.0;102400;;;;
2022/12/17 14:14:01;;;;;;;4.3;4.2;;;;;;;-0.6;100.0;102400;;;;
2022/12/17 14:15:02;;;;;;;4.3;4.2;;;;;;;-0.6;100.0;102400;;;;
2022/12/17 14:16:00;;;;;;;4.3;4.2;;;;;;;-0.6;100.0;102400;;;;
2022/12/17 14:17:00;;;;;;;4.3;4.2;;;;;;;-0.6;100.0;102400;;;;
2022/12/17 14:18:01;;;;;;;4.3;4.2;;;;;;;-0.6;100.0;102400;;;;
2022/12/17 14:19:00;;;;;;;3.5;3.4;;;;;;;-0.6;100.0;102400;;;;
2022/12/17 14:20:03;;;;;;;3.5;3.4;;;;;;;-0.7;100.0;102400;;;;
2022/12/17 14:21:00;;;;;;;3.5;3.4;;;;;;;-0.7;100.0;102400;;;;
2022/12/17 14:22:00;;;;;;;3.5;3.4;;;;;;;-0.9;100.0;102410;;;;
2022/12/17 14:23:05;;;;;;;3.5;3.4;;;;;;;-0.9;100.0;102410;;;;
2022/12/17 14:24:00;;;;;;;3.5;3.4;;;;;;;-0.6;100.0;102410;;;;
2022/12/17 14:25:00;;;;;;;3.5;3.4;;;;;;;-0.6;100.0;102410;;;;
2022/12/17 14:26:00;;;;;;;3.5;3.4;;;;;;;-0.8;100.0;102410;;;;
2022/12/17 14:27:00;;;;;;;3.5;3.4;;;;;;;-0.8;100.0;102410;;;;
2022/12/17 14:28:01;;;;;;;3.5;3.4;;;;;;;-0.7;100.0;102420;;;;
2022/12/17 14:29:00;;;;;;;3.5;3.4;;;;;;;-0.7;100.0;102420;;;;
2022/12/17 14:30:01;;;;;;;3.5;3.4;;;;;;;-0.9;100.0;102420;;;;
2022/12/17 14:31:20;;;;;;;3.5;3.4;;;;;;;-0.9;100.0;102420;;;;
2022/12/17 14:32:01;;;;;;;3.5;3.4;;;;;;;-0.8;100.0;102420;;;;
2022/12/17 14:33:00;;;;;;;3.5;3.4;;;;;;;-0.8;100.0;102420;;;;
2022/12/17 14:34:06;;;;;;;3.5;3.4;;;;;;;-0.8;100.0;102420;;;;
2022/12/17 14:35:01;;;;;;;3.5;3.4;;;;;;;-0.8;100.0;102420;;;;
2022/12/17 14:36:03;;;;;;;3.5;3.4;;;;;;;-0.8;100.0;102420;;;;
2022/12/17 14:37:00;;;;;;;3.5;3.4;;;;;;;-0.8;100.0;102420;;;;
2022/12/17 14:38:00;;;;;;;3.5;3.4;;;;;;;-0.9;100.0;102420;;;;
2022/12/17 14:39:02;;;;;;;3.5;3.4;;;;;;;-0.9;100.0;102420;;;;
2022/12/17 14:40:03;;;;;;;3.5;3.4;;;;;;;-0.8;100.0;102430;;;;
2022/12/17 14:42:24;;;;;;;3.5;3.4;;;;;;;-0.8;100.0;102430;;;;
2022/12/17 14:43:00;;;;;;;3.5;3.4;;;;;;;-0.6;100.0;102430;;;;
2022/12/17 14:44:01;;;;;;;3.5;3.4;;;;;;;-0.7;100.0;102430;;;;
2022/12/17 14:45:00;;;;;;;3.5;3.4;;;;;;;-0.7;100.0;102430;;;;
2022/12/17 14:47:10;;;;;;;3.5;3.4;;;;;;;-0.8;100.0;102430;;;;
2022/12/17 14:48:03;;;;;;;3.5;3.4;;;;;;;-0.7;100.0;102440;;;;
2022/12/17 14:49:02;;;;;;;3.5;3.4;;;;;;;-0.7;100.0;102440;;;;
2022/12/17 14:50:01;;;;;;;3.5;3.4;;;;;;;-0.7;100.0;102430;;;;
2022/12/17 14:51:00;;;;;;;3.5;3.4;;;;;;;-0.7;100.0;102430;;;;
2022/12/17 14:52:10;;;;;;;3.5;3.4;;;;;;;-0.8;100.0;102430;;;;
2022/12/17 14:53:02;;;;;;;3.5;3.4;;;;;;;-0.8;100.0;102430;;;;
2022/12/17 14:54:06;;;;;;;3.5;3.4;;;;;;;-0.9;100.0;102430;;;;
2022/12/17 14:55:00;;;;;;;3.5;3.4;;;;;;;-0.9;100.0;102430;;;;
2022/12/17 14:56:00;;;;;;;3.5;3.4;;;;;;;-0.9;100.0;102430;;;;
2022/12/17 14:57:04;;;;;;;3.5;3.4;;;;;;;-0.9;100.0;102430;;;;
2022/12/17 14:58:10;;;;;;;3.5;3.4;;;;;;;-1.2;100.0;102440;;;;
2022/12/17 14:59:01;;;;;;;3.8;3.7;;;;;;;-1.2;100.0;102440;;;;
2022/12/17 15:00:00;;;;;;;3.8;3.7;;;;;;;-1.1;100.0;102440;;;;
2022/12/17 15:01:10;;;;;;;3.8;3.7;;;;;;;-1.1;100.0;102440;;;;
2022/12/17 15:02:09;;;;;;;3.8;3.7;;;;;;;-1.1;100.0;102430;;;;
2022/12/17 15:03:00;;;;;;;3.8;3.7;;;;;;;-1.1;100.0;102430;;;;
2022/12/17 15:04:01;;;;;;;3.8;3.7;;;;;;;-1.3;100.0;102430;;;;
2022/12/17 15:05:01;;;;;;;3.8;3.7;;;;;;;-1.3;100.0;102430;;;;
2022/12/17 15:06:01;;;;;;;3.8;3.7;;;;;;;-1.1;100.0;102430;;;;
2022/12/17 15:07:00;;;;;;;3.8;3.7;;;;;;;-1.1;100.0;102430;;;;
2022/12/17 15:08:00;;;;;;;3.8;3.7;;;;;;;-1.1;100.0;102440;;;;
2022/12/17 15:09:00;;;;;;;3.8;3.7;;;;;;;-1.1;100.0;102440;;;;
2022/12/17 15:10:07;;;;;;;3.8;3.7;;;;;;;-1.2;100.0;102440;;;;
2022/12/17 15:11:00;;;;;;;3.8;3.7;;;;;;;-1.2;100.0;102440;;;;
2022/12/17 15:12:00;;;;;;;3.8;3.7;;;;;;;-1.1;100.0;102450;;;;
2022/12/17 15:13:00;;;;;;;3.8;3.7;;;;;;;-1.1;100.0;102450;;;;
2022/12/17 15:14:00;;;;;;;3.8;3.7;;;;;;;-1.1;100.0;102450;;;;
2022/12/17 15:15:00;;;;;;;3.8;3.7;;;;;;;-1.1;100.0;102450;;;;
2022/12/17 15:16:00;;;;;;;3.8;3.7;;;;;;;-1.1;100.0;102450;;;;
2022/12/17 15:17:00;;;;;;;3.8;3.7;;;;;;;-1.1;100.0;102450;;;;
2022/12/17 15:18:00;;;;;;;3.8;3.7;;;;;;;-1.1;100.0;102450;;;;
2022/12/17 15:19:00;;;;;;;3.9;3.8;;;;;;;-1.1;100.0;102450;;;;
2022/12/17 15:20:00;;;;;;;3.9;3.8;;;;;;;-1.2;100.0;102450;;;;
2022/12/17 15:21:00;;;;;;;3.9;3.8;;;;;;;-1.2;100.0;102450;;;;
2022/12/17 15:22:01;;;;;;;3.9;3.8;;;;;;;-1.4;100.0;102460;;;;
2022/12/17 15:23:01;;;;;;;3.9;3.8;;;;;;;-1.4;100.0;102460;;;;
2022/12/17 15:24:00;;;;;;;3.9;3.8;;;;;;;-1.3;100.0;102460;;;;
2022/12/17 15:25:00;;;;;;;3.9;3.8;;;;;;;-1.3;100.0;102460;;;;
2022/12/17 15:26:00;;;;;;;3.9;3.8;;;;;;;-1.4;100.0;102460;;;;
2022/12/17 15:27:00;;;;;;;3.9;3.8;;;;;;;-1.4;100.0;102460;;;;
2022/12/17 15:28:00;;;;;;;3.9;3.8;;;;;;;-1.3;100.0;102460;;;;
2022/12/17 15:29:01;;;;;;;3.9;3.8;;;;;;;-1.3;100.0;102460;;;;
2022/12/17 15:30:00;;;;;;;3.9;3.8;;;;;;;-1.3;100.0;102470;;;;
2022/12/17 15:31:00;;;;;;;3.9;3.8;;;;;;;-1.3;100.0;102470;;;;
2022/12/17 15:32:01;;;;;;;3.9;3.8;;;;;;;-1.2;100.0;102460;;;;
2022/12/17 15:33:01;;;;;;;3.9;3.8;;;;;;;-1.2;100.0;102460;;;;
2022/12/17 15:34:00;;;;;;;3.9;3.8;;;;;;;-1.2;100.0;102460;;;;
2022/12/17 15:35:00;;;;;;;3.9;3.8;;;;;;;-1.2;100.0;102460;;;;
2022/12/17 15:36:00;;;;;;;3.9;3.8;;;;;;;-1.2;100.0;102470;;;;
2022/12/17 15:37:00;;;;;;;3.9;3.8;;;;;;;-1.2;100.0;102470;;;;
2022/12/17 15:38:00;;;;;;;3.9;3.8;;;;;;;-1.1;100.0;102470;;;;
2022/12/17 15:39:00;;;;;;;4.4;4.3;;;;;;;-1.1;100.0;102470;;;;
2022/12/17 15:40:00;;;;;;;4.4;4.3;;;;;;;-1.2;100.0;102480;;;;
2022/12/17 15:43:09;;;;;;;4.4;4.3;;;;;;;-1.2;100.0;102480;;;;
2022/12/17 15:43:14;;;;;;;4.4;4.3;;;;;;;-1.2;100.0;102480;;;;
2022/12/17 15:44:00;;;;;;;4.4;4.3;;;;;;;-1.3;100.0;102480;;;;
2022/12/17 15:45:00;;;;;;;4.4;4.3;;;;;;;-1.3;100.0;102480;;;;
2022/12/17 15:46:00;;;;;;;4.4;4.3;;;;;;;-1.3;100.0;102480;;;;
2022/12/17 15:47:00;;;;;;;4.4;4.3;;;;;;;-1.3;100.0;102480;;;;
2022/12/17 15:48:00;;;;;;;4.4;4.3;;;;;;;-1.3;100.0;102480;;;;
2022/12/17 15:49:01;;;;;;;4.4;4.3;;;;;;;-1.3;100.0;102480;;;;
2022/12/17 15:50:00;;;;;;;4.4;4.3;;;;;;;-1.3;100.0;102480;;;;
2022/12/17 15:51:00;;;;;;;4.4;4.3;;;;;;;-1.3;100.0;102480;;;;
2022/12/17 15:52:00;;;;;;;4.4;4.3;;;;;;;-1.3;100.0;102490;;;;
2022/12/17 15:53:00;;;;;;;4.4;4.3;;;;;;;-1.3;100.0;102490;;;;
2022/12/17 15:54:00;;;;;;;4.4;4.3;;;;;;;-1.4;100.0;102490;;;;
2022/12/17 15:55:00;;;;;;;4.4;4.3;;;;;;;-1.4;100.0;102490;;;;
2022/12/17 15:56:00;;;;;;;4.4;4.3;;;;;;;-1.5;100.0;102490;;;;
2022/12/17 15:57:00;;;;;;;4.4;4.3;;;;;;;-1.5;100.0;102490;;;;
2022/12/17 15:58:00;;;;;;;4.7;4.6;;;;;;;-1.2;100.0;102490;;;;
2022/12/17 15:59:00;;;;;;;4.7;4.6;;;;;;;-1.2;100.0;102490;;;;
2022/12/17 16:00:00;;;;;;;4.7;4.6;;;;;;;-1.4;100.0;102490;;;;
2022/12/17 16:01:04;;;;;;;4.7;4.6;;;;;;;-1.4;100.0;102490;;;;
2022/12/17 16:02:00;;;;;;;4.7;4.6;;;;;;;-1.5;100.0;102490;;;;
2022/12/17 16:03:00;;;;;;;4.7;4.6;;;;;;;-1.5;100.0;102490;;;;
2022/12/17 16:04:00;;;;;;;4.7;4.6;;;;;;;-1.5;100.0;102490;;;;
2022/12/17 16:05:00;;;;;;;4.7;4.6;;;;;;;-1.5;100.0;102490;;;;
2022/12/17 16:06:00;;;;;;;4.7;4.6;;;;;;;-1.5;100.0;102490;;;;
2022/12/17 16:07:00;;;;;;;4.7;4.6;;;;;;;-1.5;100.0;102490;;;;
2022/12/17 16:08:01;;;;;;;4.7;4.6;;;;;;;-1.5;100.0;102490;;;;
2022/12/17 16:09:00;;;;;;;4.7;4.6;;;;;;;-1.5;100.0;102490;;;;
2022/12/17 16:10:05;;;;;;;4.7;4.6;;;;;;;-1.5;100.0;102490;;;;
2022/12/17 16:11:04;;;;;;;4.7;4.6;;;;;;;-1.5;100.0;102490;;;;
2022/12/17 16:12:00;;;;;;;4.7;4.6;;;;;;;-1.5;100.0;102480;;;;
2022/12/17 16:13:00;;;;;;;4.7;4.6;;;;;;;-1.5;100.0;102480;;;;
2022/12/17 16:14:00;;;;;;;4.7;4.6;;;;;;;-1.6;100.0;102490;;;;
2022/12/17 16:15:00;;;;;;;4.7;4.6;;;;;;;-1.6;100.0;102490;;;;
2022/12/17 16:16:04;;;;;;;4.7;4.6;;;;;;;-1.6;100.0;102490;;;;
2022/12/17 16:17:00;;;;;;;4.7;4.6;;;;;;;-1.6;100.0;102490;;;;
2022/12/17 16:18:00;;;;;;;3.8;3.7;;;;;;;-1.7;100.0;102490;;;;
2022/12/17 16:19:00;;;;;;;3.8;3.7;;;;;;;-1.7;100.0;102490;;;;
2022/12/17 16:20:00;;;;;;;3.8;3.7;;;;;;;-1.8;100.0;102490;;;;
2022/12/17 16:21:01;;;;;;;3.8;3.7;;;;;;;-1.8;100.0;102490;;;;
2022/12/17 16:22:00;;;;;;;3.8;3.7;;;;;;;-1.8;100.0;102490;;;;
2022/12/17 16:23:00;;;;;;;3.8;3.7;;;;;;;-1.8;100.0;102490;;;;
2022/12/17 16:24:01;;;;;;;3.8;3.7;;;;;;;-1.9;100.0;102500;;;;
2022/12/17 16:25:00;;;;;;;3.8;3.7;;;;;;;-1.9;100.0;102500;;;;
2022/12/17 16:26:01;;;;;;;3.8;3.7;;;;;;;-1.9;100.0;102500;;;;
2022/12/17 16:27:04;;;;;;;3.8;3.7;;;;;;;-1.9;100.0;102500;;;;
2022/12/17 16:28:00;;;;;;;3.8;3.7;;;;;;;-1.8;100.0;102490;;;;
2022/12/17 16:29:00;;;;;;;3.8;3.7;;;;;;;-1.8;100.0;102490;;;;
2022/12/17 16:30:02;;;;;;;3.8;3.7;;;;;;;-1.8;100.0;102500;;;;
2022/12/17 16:31:01;;;;;;;3.8;3.7;;;;;;;-1.8;100.0;102500;;;;
2022/12/17 16:32:00;;;;;;;3.8;3.7;;;;;;;-1.7;100.0;102500;;;;
2022/12/17 16:33:00;;;;;;;3.8;3.7;;;;;;;-1.7;100.0;102500;;;;
2022/12/17 16:34:00;;;;;;;3.8;3.7;;;;;;;-1.6;100.0;102500;;;;
2022/12/17 16:35:00;;;;;;;3.8;3.7;;;;;;;-1.6;100.0;102500;;;;
2022/12/17 16:36:00;;;;;;;3.8;3.7;;;;;;;-1.6;100.0;102500;;;;
2022/12/17 16:37:00;;;;;;;3.8;3.7;;;;;;;-1.6;100.0;102500;;;;
2022/12/17 16:38:01;;;;;;;4.5;4.4;;;;;;;-1.5;100.0;102500;;;;
2022/12/17 16:39:00;;;;;;;4.5;4.4;;;;;;;-1.5;100.0;102500;;;;
2022/12/17 16:40:01;;;;;;;4.5;4.4;;;;;;;-1.8;100.0;102500;;;;
2022/12/17 16:41:01;;;;;;;4.5;4.4;;;;;;;-1.8;100.0;102500;;;;
2022/12/17 16:42:00;;;;;;;4.5;4.4;;;;;;;-1.7;100.0;102500;;;;
2022/12/17 16:43:00;;;;;;;4.5;4.4;;;;;;;-1.7;100.0;102500;;;;
2022/12/17 16:44:00;;;;;;;4.5;4.4;;;;;;;-1.6;100.0;102500;;;;
2022/12/17 16:45:00;;;;;;;4.5;4.4;;;;;;;-1.6;100.0;102500;;;;
2022/12/17 16:46:00;;;;;;;4.5;4.4;;;;;;;-1.6;100.0;102500;;;;
2022/12/17 16:47:00;;;;;;;4.5;4.4;;;;;;;-1.6;100.0;102500;;;;
2022/12/17 16:48:00;;;;;;;4.5;4.4;;;;;;;-1.6;100.0;102500;;;;
2022/12/17 16:49:03;;;;;;;4.5;4.4;;;;;;;-1.6;100.0;102500;;;;
2022/12/17 16:50:00;;;;;;;4.5;4.4;;;;;;;-1.6;100.0;102490;;;;
2022/12/17 16:51:00;;;;;;;4.5;4.4;;;;;;;-1.6;100.0;102490;;;;
2022/12/17 16:52:02;;;;;;;4.5;4.4;;;;;;;-1.6;100.0;102490;;;;
2022/12/17 16:53:00;;;;;;;4.5;4.4;;;;;;;-1.6;100.0;102490;;;;
2022/12/17 16:54:03;;;;;;;4.5;4.4;;;;;;;-1.7;100.0;102490;;;;
2022/12/17 16:55:00;;;;;;;4.5;4.4;;;;;;;-1.7;100.0;102490;;;;
2022/12/17 16:56:00;;;;;;;4.5;4.4;;;;;;;-1.6;100.0;102490;;;;
2022/12/17 16:57:00;;;;;;;4.5;4.4;;;;;;;-1.6;100.0;102490;;;;
2022/12/17 16:58:00;;;;;;;4.1;4.0;;;;;;;-1.5;100.0;102490;;;;
2022/12/17 16:59:02;;;;;;;4.1;4.0;;;;;;;-1.5;100.0;102490;;;;
2022/12/17 17:00:00;;;;;;;4.1;4.0;;;;;;;-1.5;100.0;102500;;;;
2022/12/17 17:01:00;;;;;;;4.1;4.0;;;;;;;-1.5;100.0;102500;;;;
2022/12/17 17:02:01;;;;;;;4.1;4.0;;;;;;;-1.6;100.0;102500;;;;
2022/12/17 17:03:00;;;;;;;4.1;4.0;;;;;;;-1.6;100.0;102500;;;;
2022/12/17 17:04:00;;;;;;;4.1;4.0;;;;;;;-1.8;100.0;102500;;;;
2022/12/17 17:05:01;;;;;;;4.1;4.0;;;;;;;-1.8;100.0;102500;;;;
2022/12/17 17:06:01;;;;;;;4.1;4.0;;;;;;;-1.8;100.0;102500;;;;
2022/12/17 17:07:00;;;;;;;4.1;4.0;;;;;;;-1.8;100.0;102500;;;;
2022/12/17 17:08:00;;;;;;;4.1;4.0;;;;;;;-1.9;100.0;102500;;;;
2022/12/17 17:09:02;;;;;;;4.1;4.0;;;;;;;-1.9;100.0;102500;;;;
2022/12/17 17:10:00;;;;;;;4.1;4.0;;;;;;;-1.8;100.0;102500;;;;
2022/12/17 17:11:08;;;;;;;4.1;4.0;;;;;;;-1.8;100.0;102500;;;;
2022/12/17 17:12:00;;;;;;;4.1;4.0;;;;;;;-1.9;100.0;102500;;;;
2022/12/17 17:13:00;;;;;;;4.1;4.0;;;;;;;-1.9;100.0;102500;;;;
2022/12/17 17:14:00;;;;;;;4.1;4.0;;;;;;;-1.9;100.0;102500;;;;
2022/12/17 17:15:00;;;;;;;4.1;4.0;;;;;;;-1.9;100.0;102500;;;;
2022/12/17 17:16:00;;;;;;;4.1;4.0;;;;;;;-1.9;100.0;102500;;;;
2022/12/17 17:17:00;;;;;;;4.1;4.0;;;;;;;-1.9;100.0;102500;;;;
2022/12/17 17:18:03;;;;;;;4.0;3.9;;;;;;;-1.8;100.0;102510;;;;
2022/12/17 17:19:00;;;;;;;4.0;3.9;;;;;;;-1.8;100.0;102510;;;;
2022/12/17 17:20:00;;;;;;;4.0;3.9;;;;;;;-1.8;100.0;102510;;;;
2022/12/17 17:21:10;;;;;;;4.0;3.9;;;;;;;-1.8;100.0;102510;;;;
2022/12/17 17:22:00;;;;;;;4.0;3.9;;;;;;;-1.8;100.0;102510;;;;
2022/12/17 17:23:01;;;;;;;4.0;3.9;;;;;;;-1.8;100.0;102510;;;;
2022/12/17 17:24:01;;;;;;;4.0;3.9;;;;;;;-1.8;100.0;102510;;;;
2022/12/17 17:25:00;;;;;;;4.0;3.9;;;;;;;-1.8;100.0;102510;;;;
2022/12/17 17:26:00;;;;;;;4.0;3.9;;;;;;;-1.8;100.0;102510;;;;
2022/12/17 17:27:00;;;;;;;4.0;3.9;;;;;;;-1.8;100.0;102510;;;;
2022/12/17 17:28:00;;;;;;;4.0;3.9;;;;;;;-1.7;100.0;102500;;;;
2022/12/17 17:29:00;;;;;;;4.0;3.9;;;;;;;-1.7;100.0;102500;;;;
2022/12/17 17:30:04;;;;;;;4.0;3.9;;;;;;;-1.8;100.0;102510;;;;
2022/12/17 17:31:01;;;;;;;4.0;3.9;;;;;;;-1.8;100.0;102510;;;;
2022/12/17 17:32:10;;;;;;;4.0;3.9;;;;;;;-1.8;100.0;102510;;;;
2022/12/17 17:33:00;;;;;;;4.0;3.9;;;;;;;-1.8;100.0;102510;;;;
2022/12/17 17:34:00;;;;;;;4.0;3.9;;;;;;;-1.9;100.0;102510;;;;
2022/12/17 17:35:00;;;;;;;4.0;3.9;;;;;;;-1.9;100.0;102510;;;;
2022/12/17 17:36:04;;;;;;;4.0;3.9;;;;;;;-1.9;100.0;102500;;;;
2022/12/17 17:37:00;;;;;;;4.0;3.9;;;;;;;-1.9;100.0;102500;;;;
2022/12/17 17:38:00;;;;;;;4.1;4.0;;;;;;;-2.1;100.0;102510;;;;
2022/12/17 17:39:01;;;;;;;4.1;4.0;;;;;;;-2.1;100.0;102510;;;;
2022/12/17 17:40:00;;;;;;;4.1;4.0;;;;;;;-2.2;100.0;102520;;;;
2022/12/17 17:41:00;;;;;;;4.1;4.0;;;;;;;-2.2;100.0;102520;;;;
2022/12/17 17:42:00;;;;;;;4.1;4.0;;;;;;;-2.1;100.0;102520;;;;
2022/12/17 17:43:00;;;;;;;4.1;4.0;;;;;;;-2.1;100.0;102520;;;;
2022/12/17 17:44:01;;;;;;;4.1;4.0;;;;;;;-2.1;100.0;102520;;;;
2022/12/17 17:45:02;;;;;;;4.1;4.0;;;;;;;-2.1;100.0;102520;;;;
2022/12/17 17:46:04;;;;;;;4.1;4.0;;;;;;;-2.2;100.0;102520;;;;
2022/12/17 17:47:00;;;;;;;4.1;4.0;;;;;;;-2.2;100.0;102520;;;;
2022/12/17 17:48:00;;;;;;;4.1;4.0;;;;;;;-2.5;100.0;102520;;;;
2022/12/17 17:49:01;;;;;;;4.1;4.0;;;;;;;-2.5;100.0;102520;;;;
2022/12/17 17:50:00;;;;;;;4.1;4.0;;;;;;;-2.3;100.0;102520;;;;
2022/12/17 17:51:01;;;;;;;4.1;4.0;;;;;;;-2.3;100.0;102520;;;;
2022/12/17 17:52:10;;;;;;;4.1;4.0;;;;;;;-2.2;100.0;102520;;;;
2022/12/17 17:53:00;;;;;;;4.1;4.0;;;;;;;-2.2;100.0;102520;;;;
2022/12/17 17:54:00;;;;;;;4.1;4.0;;;;;;;-2.2;100.0;102520;;;;
2022/12/17 17:55:01;;;;;;;4.1;4.0;;;;;;;-2.2;100.0;102520;;;;
2022/12/17 17:56:01;;;;;;;4.1;4.0;;;;;;;-2.2;100.0;102530;;;;
2022/12/17 17:57:00;;;;;;;4.1;4.0;;;;;;;-2.2;100.0;102530;;;;
2022/12/17 17:58:00;;;;;;;6.0;5.7;;;;;;;-2.2;100.0;102530;;;;
2022/12/17 17:59:01;;;;;;;6.0;5.7;;;;;;;-2.2;100.0;102530;;;;
2022/12/17 18:00:01;;;;;;;6.0;5.7;;;;;;;-2.2;100.0;102530;;;;
2022/12/17 18:01:06;;;;;;;6.0;5.7;;;;;;;-2.2;100.0;102530;;;;
2022/12/17 18:02:01;;;;;;;6.0;5.7;;;;;;;-2.1;100.0;102530;;;;
2022/12/17 18:03:00;;;;;;;6.0;5.7;;;;;;;-2.1;100.0;102530;;;;
2022/12/17 18:04:01;;;;;;;6.0;5.7;;;;;;;-2.1;100.0;102530;;;;
2022/12/17 18:05:00;;;;;;;6.0;5.7;;;;;;;-2.1;100.0;102530;;;;
2022/12/17 18:06:02;;;;;;;6.0;5.7;;;;;;;-2.2;100.0;102530;;;;
2022/12/17 18:07:10;;;;;;;6.0;5.7;;;;;;;-2.2;100.0;102530;;;;
2022/12/17 18:08:00;;;;;;;6.0;5.7;;;;;;;-2.2;100.0;102530;;;;
2022/12/17 18:09:00;;;;;;;6.0;5.7;;;;;;;-2.2;100.0;102530;;;;
2022/12/17 18:10:00;;;;;;;6.0;5.7;;;;;;;-2.3;100.0;102540;;;;
2022/12/17 18:11:01;;;;;;;6.0;5.7;;;;;;;-2.3;100.0;102540;;;;
2022/12/17 18:13:53;;;;;;;6.0;5.7;;;;;;;-2.3;100.0;102540;;;;
2022/12/17 18:14:01;;;;;;;6.0;5.7;;;;;;;-2.5;100.0;102540;;;;
2022/12/17 18:15:10;;;;;;;6.0;5.7;;;;;;;-2.5;100.0;102540;;;;
2022/12/17 18:16:00;;;;;;;6.0;5.7;;;;;;;-2.3;100.0;102540;;;;
2022/12/17 18:17:00;;;;;;;6.0;5.7;;;;;;;-2.3;100.0;102540;;;;
2022/12/17 18:18:00;;;;;;;4.2;4.1;;;;;;;-2.5;100.0;102540;;;;
2022/12/17 18:19:01;;;;;;;4.2;4.1;;;;;;;-2.5;100.0;102540;;;;
2022/12/17 18:20:00;;;;;;;4.2;4.1;;;;;;;-2.4;100.0;102540;;;;
2022/12/17 18:21:01;;;;;;;4.2;4.1;;;;;;;-2.4;100.0;102540;;;;
2022/12/17 18:22:00;;;;;;;4.2;4.1;;;;;;;-2.6;100.0;102550;;;;
2022/12/17 18:23:00;;;;;;;4.2;4.1;;;;;;;-2.6;100.0;102550;;;;
2022/12/17 18:24:01;;;;;;;4.2;4.1;;;;;;;-2.4;100.0;102550;;;;
2022/12/17 18:25:00;;;;;;;4.2;4.1;;;;;;;-2.4;100.0;102550;;;;
2022/12/17 18:26:05;;;;;;;4.2;4.1;;;;;;;-2.2;100.0;102550;;;;
2022/12/17 18:27:00;;;;;;;4.2;4.1;;;;;;;-2.2;100.0;102550;;;;
2022/12/17 18:28:00;;;;;;;4.2;4.1;;;;;;;-2.4;100.0;102550;;;;
2022/12/17 18:29:02;;;;;;;4.2;4.1;;;;;;;-2.4;100.0;102550;;;;
2022/12/17 18:30:00;;;;;;;4.2;4.1;;;;;;;-2.5;100.0;102550;;;;
2022/12/17 18:31:09;;;;;;;4.2;4.1;;;;;;;-2.5;100.0;102550;;;;
2022/12/17 18:32:00;;;;;;;4.2;4.1;;;;;;;-2.5;100.0;102550;;;;
2022/12/17 18:33:00;;;;;;;4.2;4.1;;;;;;;-2.5;100.0;102550;;;;
2022/12/17 18:34:01;;;;;;;4.2;4.1;;;;;;;-2.4;100.0;102550;;;;
2022/12/17 18:35:00;;;;;;;4.2;4.1;;;;;;;-2.4;100.0;102550;;;;
2022/12/17 18:36:00;;;;;;;4.2;4.1;;;;;;;-2.5;100.0;102550;;;;
2022/12/17 18:37:00;;;;;;;4.2;4.1;;;;;;;-2.5;100.0;102550;;;;
2022/12/17 18:38:00;;;;;;;4.9;4.8;;;;;;;-2.4;100.0;102550;;;;
2022/12/17 18:39:02;;;;;;;4.9;4.8;;;;;;;-2.4;100.0;102550;;;;
2022/12/17 18:40:00;;;;;;;4.9;4.8;;;;;;;-2.3;100.0;102550;;;;
2022/12/17 18:44:01;;;;;;;4.9;4.8;;;;;;;-2.6;100.0;102550;;;;
2022/12/17 18:45:00;;;;;;;4.9;4.8;;;;;;;-2.6;100.0;102550;;;;
2022/12/17 18:46:02;;;;;;;4.9;4.8;;;;;;;-2.9;100.0;102540;;;;
2022/12/17 18:47:00;;;;;;;4.9;4.8;;;;;;;-2.9;100.0;102540;;;;
2022/12/17 18:48:00;;;;;;;4.9;4.8;;;;;;;-2.6;100.0;102540;;;;
2022/12/17 18:49:02;;;;;;;4.9;4.8;;;;;;;-2.6;100.0;102540;;;;
2022/12/17 18:50:00;;;;;;;4.9;4.8;;;;;;;-2.5;100.0;102550;;;;
2022/12/17 18:51:04;;;;;;;4.9;4.8;;;;;;;-2.5;100.0;102550;;;;
2022/12/17 18:52:00;;;;;;;4.9;4.8;;;;;;;-2.6;100.0;102550;;;;
2022/12/17 18:53:00;;;;;;;4.9;4.8;;;;;;;-2.6;100.0;102550;;;;
2022/12/17 18:54:02;;;;;;;4.9;4.8;;;;;;;-3.0;100.0;102550;;;;
2022/12/17 18:55:00;;;;;;;4.9;4.8;;;;;;;-3.0;100.0;102550;;;;
2022/12/17 18:56:08;;;;;;;4.9;4.8;;;;;;;-3.2;100.0;102540;;;;
2022/12/17 18:57:02;;;;;;;4.9;4.8;;;;;;;-3.2;100.0;102540;;;;
2022/12/17 18:58:00;;;;;;;4.5;4.4;;;;;;;-3.0;100.0;102550;;;;
2022/12/17 18:59:00;;;;;;;4.5;4.4;;;;;;;-3.0;100.0;102550;;;;
2022/12/17 19:00:00;;;;;;;4.5;4.4;;;;;;;-3.0;100.0;102550;;;;
2022/12/17 19:01:00;;;;;;;4.5;4.4;;;;;;;-3.0;100.0;102550;;;;
2022/12/17 19:02:00;;;;;;;4.5;4.4;;;;;;;-2.8;100.0;102550;;;;
2022/12/17 19:03:02;;;;;;;4.5;4.4;;;;;;;-2.8;100.0;102550;;;;
2022/12/17 19:04:01;;;;;;;4.5;4.4;;;;;;;-2.8;100.0;102550;;;;
2022/12/17 19:05:00;;;;;;;4.5;4.4;;;;;;;-2.8;100.0;102550;;;;
2022/12/17 19:06:03;;;;;;;4.5;4.4;;;;;;;-2.9;100.0;102540;;;;
2022/12/17 19:07:00;;;;;;;4.5;4.4;;;;;;;-2.9;100.0;102540;;;;
2022/12/17 19:08:00;;;;;;;4.5;4.4;;;;;;;-3.4;100.0;102550;;;;
2022/12/17 19:09:01;;;;;;;4.5;4.4;;;;;;;-3.4;100.0;102550;;;;
2022/12/17 19:10:00;;;;;;;4.5;4.4;;;;;;;-3.5;100.0;102550;;;;
2022/12/17 19:11:04;;;;;;;4.5;4.4;;;;;;;-3.5;100.0;102550;;;;
2022/12/17 19:12:00;;;;;;;4.5;4.4;;;;;;;-3.4;100.0;102540;;;;
2022/12/17 19:13:00;;;;;;;4.5;4.4;;;;;;;-3.4;100.0;102540;;;;
2022/12/17 19:14:00;;;;;;;4.5;4.4;;;;;;;-3.2;100.0;102550;;;;
2022/12/17 19:15:00;;;;;;;4.5;4.4;;;;;;;-3.2;100.0;102550;;;;
2022/12/17 19:16:09;;;;;;;4.5;4.4;;;;;;;-3.3;100.0;102550;;;;
2022/12/17 19:17:00;;;;;;;5.0;4.9;;;;;;;-3.3;100.0;102550;;;;
2022/12/17 19:18:00;;;;;;;5.0;4.9;;;;;;;-3.3;100.0;102550;;;;
2022/12/17 19:19:01;;;;;;;5.0;4.9;;;;;;;-3.3;100.0;102550;;;;
2022/12/17 19:20:00;;;;;;;5.0;4.9;;;;;;;-3.1;100.0;102560;;;;
2022/12/17 19:21:00;;;;;;;5.0;4.9;;;;;;;-3.1;100.0;102560;;;;
2022/12/17 19:22:00;;;;;;;5.0;4.9;;;;;;;-3.0;100.0;102560;;;;
2022/12/17 19:23:00;;;;;;;5.0;4.9;;;;;;;-3.0;100.0;102560;;;;
2022/12/17 19:24:01;;;;;;;5.0;4.9;;;;;;;-3.1;100.0;102560;;;;
2022/12/17 19:25:00;;;;;;;5.0;4.9;;;;;;;-3.1;100.0;102560;;;;
2022/12/17 19:26:04;;;;;;;5.0;4.9;;;;;;;-3.1;100.0;102560;;;;
2022/12/17 19:27:00;;;;;;;5.0;4.9;;;;;;;-3.1;100.0;102560;;;;
2022/12/17 19:28:00;;;;;;;5.0;4.9;;;;;;;-3.2;100.0;102570;;;;
2022/12/17 19:29:00;;;;;;;5.0;4.9;;;;;;;-3.2;100.0;102570;;;;
2022/12/17 19:30:00;;;;;;;5.0;4.9;;;;;;;-3.3;100.0;102570;;;;
2022/12/17 19:31:00;;;;;;;5.0;4.9;;;;;;;-3.3;100.0;102570;;;;
2022/12/17 19:32:00;;;;;;;5.0;4.9;;;;;;;-3.1;100.0;102570;;;;
2022/12/17 19:33:00;;;;;;;5.0;4.9;;;;;;;-3.1;100.0;102570;;;;
2022/12/17 19:34:01;;;;;;;5.0;4.9;;;;;;;-3.0;100.0;102570;;;;
2022/12/17 19:35:00;;;;;;;5.0;4.9;;;;;;;-3.0;100.0;102570;;;;
2022/12/17 19:36:01;;;;;;;5.0;4.9;;;;;;;-3.1;100.0;102580;;;;
2022/12/17 19:37:00;;;;;;;4.7;4.6;;;;;;;-3.1;100.0;102580;;;;